Time;durP1;ratioP1;P1;durP2;ratioP2;P2;SDS_P1;SDS_P2;PMS_P1;PMS_P2;Temp;Humidity;BMP_temperature;BMP_pressure;BME280_temperature;BME280_humidity;BME280_pressure;Samples;Min_cycle;Max_cycle;Signal;HPM_P1;HPM_P2
2023/05/30 00:00:00;;;;;;;7.97;5.32;;;;;;;;;;5044949;28;20099;-59
2023/05/30 00:02:26;;;;;;;8.57;4.57;;;;;;;;;;5045019;28;20485;-57
2023/05/30 00:04:51;;;;;;;7.38;4.55;;;;;;;;;;5044626;28;20100;-59
2023/05/30 00:07:18;;;;;;;9.10;4.20;;;;;;;;;;5044994;28;20491;-58
2023/05/30 00:09:43;;;;;;;12.27;4.70;;;;;;;;;;5044596;28;20483;-59
2023/05/30 00:12:11;;;;;;;6.97;4.43;;;;;;;;;;5044262;28;20090;-57
2023/05/30 00:14:37;;;;;;;14.18;4.95;;;;;;;;;;5045212;28;20059;-56
2023/05/30 00:17:02;;;;;;;8.25;5.20;;;;;;;;;;5044531;28;20072;-59
2023/05/30 00:19:28;;;;;;;6.43;4.45;;;;;;;;;;5044542;28;20087;-59
2023/05/30 00:21:54;;;;;;;8.20;4.78;;;;;;;;;;5044700;28;20133;-59
2023/05/30 00:24:20;;;;;;;7.85;4.65;;;;;;;;;;5044794;28;20028;-58
2023/05/30 00:26:45;;;;;;;6.93;4.70;;;;;;;;;;4992343;28;20037;-54
2023/05/30 00:29:11;;;;;;;7.38;5.40;;;;;;;;;;5044487;28;20036;-59
2023/05/30 00:31:36;;;;;;;10.20;4.97;;;;;;;;;;5044459;28;20029;-59
2023/05/30 00:34:01;;;;;;;10.93;5.13;;;;;;;;;;5044342;28;20162;-59
2023/05/30 00:36:27;;;;;;;6.88;4.63;;;;;;;;;;5044217;28;20132;-59
2023/05/30 00:38:52;;;;;;;7.88;4.50;;;;;;;;;;5044611;28;20397;-58
2023/05/30 00:41:17;;;;;;;6.93;5.13;;;;;;;;;;5044617;28;20033;-59
2023/05/30 00:43:43;;;;;;;6.60;5.03;;;;;;;;;;5044610;28;20898;-58
2023/05/30 00:46:10;;;;;;;7.78;5.40;;;;;;;;;;5043949;28;20103;-60
2023/05/30 00:48:36;;;;;;;8.65;4.90;;;;;;;;;;5026598;28;20463;-59
2023/05/30 00:51:02;;;;;;;6.93;5.03;;;;;;;;;;5044422;28;20017;-59
2023/05/30 00:53:28;;;;;;;9.77;4.60;;;;;;;;;;5043847;28;20017;-59
2023/05/30 00:55:53;;;;;;;11.18;5.15;;;;;;;;;;5044283;28;20025;-59
2023/05/30 00:58:19;;;;;;;8.93;5.07;;;;;;;;;;5043400;28;20047;-58
2023/05/30 01:00:45;;;;;;;9.05;5.60;;;;;;;;;;5043961;28;20043;-59
2023/05/30 01:03:11;;;;;;;6.95;5.22;;;;;;;;;;5026044;28;20017;-57
2023/05/30 01:05:36;;;;;;;9.55;5.03;;;;;;;;;;5043919;28;20079;-59
2023/05/30 01:08:02;;;;;;;8.43;5.57;;;;;;;;;;5043850;28;20113;-58
2023/05/30 01:10:29;;;;;;;7.22;5.05;;;;;;;;;;5043995;28;20098;-59
2023/05/30 01:13:11;;;;;;;6.88;5.25;;;;;;;;;;5026076;28;20039;-59
2023/05/30 01:15:41;;;;;;;11.02;5.47;;;;;;;;;;5043750;28;20100;-57
2023/05/30 01:18:16;;;;;;;9.63;5.10;;;;;;;;;;5044084;28;20032;-59
2023/05/30 01:20:47;;;;;;;7.38;5.60;;;;;;;;;;5043659;28;20081;-59
2023/05/30 01:23:31;;;;;;;7.97;5.22;;;;;;;;;;5025245;28;20457;-59
2023/05/30 01:26:15;;;;;;;9.52;5.70;;;;;;;;;;5043400;28;20016;-59
2023/05/30 01:28:42;;;;;;;7.43;5.13;;;;;;;;;;5043605;28;20112;-59
2023/05/30 01:31:08;;;;;;;8.65;5.85;;;;;;;;;;5043221;28;20380;-55
2023/05/30 01:33:35;;;;;;;9.15;5.63;;;;;;;;;;5042816;28;20029;-58
2023/05/30 01:36:00;;;;;;;8.63;6.07;;;;;;;;;;5043100;28;20017;-60
2023/05/30 01:38:25;;;;;;;12.63;6.43;;;;;;;;;;5043674;28;20033;-58
2023/05/30 01:40:55;;;;;;;13.38;5.70;;;;;;;;;;5043249;28;20025;-60
2023/05/30 01:43:20;;;;;;;;;;;;;;;;;;5043818;28;20051;-59
2023/05/30 01:45:51;;;;;;;8.43;5.03;;;;;;;;;;5043278;28;19944;-59
2023/05/30 01:48:40;;;;;;;10.68;6.10;;;;;;;;;;5042914;28;20748;-59
2023/05/30 01:51:10;;;;;;;8.90;6.20;;;;;;;;;;5043155;28;20017;-59
2023/05/30 01:53:37;;;;;;;11.68;6.03;;;;;;;;;;5043000;28;20013;-60
2023/05/30 01:56:05;;;;;;;10.98;5.93;;;;;;;;;;5042820;28;20025;-59
2023/05/30 01:58:32;;;;;;;9.88;6.35;;;;;;;;;;5042517;28;20044;-57
2023/05/30 02:00:58;;;;;;;9.85;6.10;;;;;;;;;;5043071;28;20037;-56
2023/05/30 02:03:24;;;;;;;13.45;5.57;;;;;;;;;;5042944;28;20028;-60
2023/05/30 02:05:49;;;;;;;13.02;6.40;;;;;;;;;;5042510;28;20082;-58
2023/05/30 02:08:14;;;;;;;11.20;6.55;;;;;;;;;;5042978;28;20079;-58
2023/05/30 02:10:40;;;;;;;10.70;5.85;;;;;;;;;;5042725;28;20013;-54
2023/05/30 02:13:05;;;;;;;10.13;5.95;;;;;;;;;;5042850;28;20025;-59
2023/05/30 02:15:30;;;;;;;11.02;6.03;;;;;;;;;;5042861;28;20381;-56
2023/05/30 02:17:56;;;;;;;8.43;5.87;;;;;;;;;;5042398;28;20033;-59
2023/05/30 02:20:21;;;;;;;13.02;6.00;;;;;;;;;;5042736;28;20333;-59
2023/05/30 02:22:46;;;;;;;9.80;5.80;;;;;;;;;;5043072;28;20460;-56
2023/05/30 02:25:12;;;;;;;6.78;5.00;;;;;;;;;;5042374;28;20067;-59
2023/05/30 02:27:37;;;;;;;9.55;5.28;;;;;;;;;;5042784;28;20723;-58
2023/05/30 02:30:02;;;;;;;9.13;5.55;;;;;;;;;;5042848;28;20082;-58
2023/05/30 02:32:27;;;;;;;8.52;5.70;;;;;;;;;;5042519;28;20350;-59
2023/05/30 02:34:53;;;;;;;11.48;5.18;;;;;;;;;;5042620;28;20021;-53
2023/05/30 02:37:18;;;;;;;7.80;5.13;;;;;;;;;;5042581;28;20083;-59
2023/05/30 02:39:44;;;;;;;7.28;5.30;;;;;;;;;;5042666;28;20041;-59
2023/05/30 02:42:09;;;;;;;9.88;5.03;;;;;;;;;;5042522;28;20019;-59
2023/05/30 02:44:34;;;;;;;9.50;5.60;;;;;;;;;;5042665;28;20021;-59
2023/05/30 02:47:00;;;;;;;15.20;5.85;;;;;;;;;;5042586;28;20124;-59
2023/05/30 02:49:25;;;;;;;9.18;5.30;;;;;;;;;;5042383;28;20512;-59
2023/05/30 02:51:50;;;;;;;11.15;6.10;;;;;;;;;;5042674;28;20017;-58
2023/05/30 02:54:15;;;;;;;9.57;5.93;;;;;;;;;;5042524;28;20480;-58
2023/05/30 02:56:41;;;;;;;7.93;5.15;;;;;;;;;;5006508;28;20037;-58
2023/05/30 02:59:06;;;;;;;8.60;5.75;;;;;;;;;;5042072;28;20116;-59
2023/05/30 03:01:31;;;;;;;14.75;5.35;;;;;;;;;;5042263;28;20059;-56
2023/05/30 03:03:57;;;;;;;7.57;5.50;;;;;;;;;;5042736;28;20755;-58
2023/05/30 03:06:24;;;;;;;12.88;6.45;;;;;;;;;;5042333;28;20064;-59
2023/05/30 03:08:57;;;;;;;10.88;4.93;;;;;;;;;;5044469;28;20033;-58
2023/05/30 03:11:22;;;;;;;9.15;5.00;;;;;;;;;;5046375;28;20044;-59
2023/05/30 03:13:47;;;;;;;9.65;5.00;;;;;;;;;;5045913;28;20029;-59
2023/05/30 03:16:12;;;;;;;8.65;5.35;;;;;;;;;;5046005;28;20027;-59
2023/05/30 03:18:39;;;;;;;11.20;6.00;;;;;;;;;;5010077;28;20389;-60
2023/05/30 03:21:05;;;;;;;9.50;5.40;;;;;;;;;;5045818;28;20253;-58
2023/05/30 03:23:31;;;;;;;9.10;5.43;;;;;;;;;;5046110;28;20017;-59
2023/05/30 03:25:56;;;;;;;16.35;6.07;;;;;;;;;;5045908;28;20465;-58
2023/05/30 03:28:21;;;;;;;9.93;5.13;;;;;;;;;;5046233;28;20063;-58
2023/05/30 03:30:46;;;;;;;8.03;5.63;;;;;;;;;;5046101;28;20044;-59
2023/05/30 03:33:12;;;;;;;9.20;5.55;;;;;;;;;;5045613;28;20292;-57
2023/05/30 03:35:37;;;;;;;8.93;5.03;;;;;;;;;;5045716;28;20488;-59
2023/05/30 03:38:03;;;;;;;7.95;5.45;;;;;;;;;;5045634;28;20036;-59
2023/05/30 03:40:28;;;;;;;12.13;6.22;;;;;;;;;;5045689;28;20021;-59
2023/05/30 03:42:55;;;;;;;11.48;5.60;;;;;;;;;;5045457;28;20492;-58
2023/05/30 03:45:20;;;;;;;11.23;5.65;;;;;;;;;;5045728;28;20469;-59
2023/05/30 03:47:45;;;;;;;11.10;5.25;;;;;;;;;;5045192;28;20028;-59
2023/05/30 03:50:10;;;;;;;8.63;4.97;;;;;;;;;;5045524;28;20021;-59
2023/05/30 03:52:36;;;;;;;9.32;5.35;;;;;;;;;;5045412;28;20610;-59
2023/05/30 03:55:02;;;;;;;11.47;6.67;;;;;;;;;;5045471;28;20479;-57
2023/05/30 03:57:27;;;;;;;10.05;5.40;;;;;;;;;;5044660;28;20327;-58
2023/05/30 03:59:52;;;;;;;10.13;5.10;;;;;;;;;;5045595;28;20067;-59
2023/05/30 04:02:18;;;;;;;9.95;5.50;;;;;;;;;;5044878;28;20962;-58
2023/05/30 04:04:43;;;;;;;9.90;5.38;;;;;;;;;;5045216;28;20033;-62
2023/05/30 04:07:08;;;;;;;9.52;5.22;;;;;;;;;;5045013;28;20532;-59
2023/05/30 04:09:34;;;;;;;10.82;5.15;;;;;;;;;;5045104;28;20453;-57
2023/05/30 04:12:01;;;;;;;10.45;5.28;;;;;;;;;;5044929;28;20021;-59
2023/05/30 04:14:26;;;;;;;9.07;5.43;;;;;;;;;;5045234;28;20508;-60
2023/05/30 04:16:51;;;;;;;9.23;5.38;;;;;;;;;;5044764;28;20112;-59
2023/05/30 04:19:17;;;;;;;9.00;5.50;;;;;;;;;;5044664;28;20040;-59
2023/05/30 04:21:42;;;;;;;10.88;6.47;;;;;;;;;;5044261;28;20676;-60
2023/05/30 04:24:07;;;;;;;10.90;6.53;;;;;;;;;;5044815;28;20056;-59
2023/05/30 04:26:33;;;;;;;11.23;6.80;;;;;;;;;;5044969;28;20112;-59
2023/05/30 04:28:58;;;;;;;12.00;6.53;;;;;;;;;;5044978;28;20017;-58
2023/05/30 04:31:24;;;;;;;14.18;6.75;;;;;;;;;;5044858;28;20064;-59
2023/05/30 04:33:50;;;;;;;11.98;6.78;;;;;;;;;;5044794;28;20033;-60
2023/05/30 04:36:18;;;;;;;11.32;6.15;;;;;;;;;;5026527;28;20098;-59
2023/05/30 04:38:44;;;;;;;12.15;5.88;;;;;;;;;;5044804;28;20067;-58
2023/05/30 04:41:10;;;;;;;12.25;6.93;;;;;;;;;;5045005;28;20017;-56
2023/05/30 04:43:35;;;;;;;11.80;6.97;;;;;;;;;;5044498;28;20028;-59
2023/05/30 04:46:00;;;;;;;10.23;6.60;;;;;;;;;;5044642;28;20025;-59
2023/05/30 04:48:29;;;;;;;9.35;5.72;;;;;;;;;;5044380;28;20151;-58
2023/05/30 04:50:54;;;;;;;8.63;5.87;;;;;;;;;;5044360;28;20112;-57
2023/05/30 04:53:20;;;;;;;9.05;5.50;;;;;;;;;;5044031;28;20325;-59
2023/05/30 04:55:45;;;;;;;12.60;6.22;;;;;;;;;;5044332;28;20013;-59
2023/05/30 04:58:11;;;;;;;11.85;5.97;;;;;;;;;;5043891;28;20045;-59
2023/05/30 05:00:37;;;;;;;14.40;6.25;;;;;;;;;;5044080;28;20039;-57
2023/05/30 05:03:03;;;;;;;12.93;6.30;;;;;;;;;;5044610;28;20109;-60
2023/05/30 05:05:28;;;;;;;11.27;6.95;;;;;;;;;;5044380;28;20381;-59
2023/05/30 05:07:53;;;;;;;10.07;5.72;;;;;;;;;;5043570;28;20139;-59
2023/05/30 05:10:19;;;;;;;15.98;6.63;;;;;;;;;;5008551;28;20031;-58
2023/05/30 05:12:44;;;;;;;12.35;5.88;;;;;;;;;;5044025;28;20025;-59
2023/05/30 05:15:10;;;;;;;10.43;5.57;;;;;;;;;;5043808;28;20028;-59
2023/05/30 05:17:36;;;;;;;10.30;6.07;;;;;;;;;;4991753;28;20423;-58
2023/05/30 05:20:05;;;;;;;9.18;5.95;;;;;;;;;;5043929;28;20024;-60
2023/05/30 05:22:31;;;;;;;12.18;6.30;;;;;;;;;;5025891;28;20029;-58
2023/05/30 05:24:56;;;;;;;8.07;5.45;;;;;;;;;;5043594;28;20077;-56
2023/05/30 05:27:22;;;;;;;11.52;6.00;;;;;;;;;;5043519;28;20601;-58
2023/05/30 05:29:48;;;;;;;10.50;6.55;;;;;;;;;;5043300;28;20028;-59
2023/05/30 05:32:13;;;;;;;34.17;9.32;;;;;;;;;;5042725;28;20115;-59
2023/05/30 05:34:38;;;;;;;11.68;6.13;;;;;;;;;;5043278;28;20017;-60
2023/05/30 05:37:04;;;;;;;10.13;6.50;;;;;;;;;;5043490;28;20718;-58
2023/05/30 05:39:29;;;;;;;15.02;7.43;;;;;;;;;;5043767;28;20534;-58
2023/05/30 05:41:54;;;;;;;11.43;6.90;;;;;;;;;;5043653;28;20036;-59
2023/05/30 05:44:19;;;;;;;8.55;5.55;;;;;;;;;;5043679;28;20343;-55
2023/05/30 05:46:45;;;;;;;11.63;5.60;;;;;;;;;;5043625;28;20479;-59
2023/05/30 05:49:10;;;;;;;9.90;6.60;;;;;;;;;;5043276;28;20329;-59
2023/05/30 05:51:36;;;;;;;10.00;6.53;;;;;;;;;;5043015;28;20551;-59
2023/05/30 05:54:01;;;;;;;7.78;5.53;;;;;;;;;;5045910;28;20052;-59
2023/05/30 05:56:27;;;;;;;11.68;6.35;;;;;;;;;;5045785;28;20167;-57
2023/05/30 05:58:52;;;;;;;10.87;7.13;;;;;;;;;;5049980;28;20762;-59
2023/05/30 06:01:17;;;;;;;10.90;6.53;;;;;;;;;;5050446;28;20288;-61
2023/05/30 06:03:43;;;;;;;10.65;6.95;;;;;;;;;;5043589;28;20253;-59
2023/05/30 06:06:08;;;;;;;9.65;7.07;;;;;;;;;;5051504;28;20041;-59
2023/05/30 06:08:33;;;;;;;9.02;5.50;;;;;;;;;;5041779;28;20031;-59
2023/05/30 06:10:58;;;;;;;9.30;6.07;;;;;;;;;;5047468;28;20516;-60
2023/05/30 06:13:24;;;;;;;10.55;6.00;;;;;;;;;;5053895;28;20253;-59
2023/05/30 06:15:50;;;;;;;8.73;6.35;;;;;;;;;;5050254;28;20494;-58
2023/05/30 06:18:15;;;;;;;9.23;5.45;;;;;;;;;;5056885;28;20078;-57
2023/05/30 06:20:40;;;;;;;12.93;5.95;;;;;;;;;;5052958;28;20475;-59
2023/05/30 06:23:05;;;;;;;10.65;6.30;;;;;;;;;;5057805;28;20053;-59
2023/05/30 06:25:31;;;;;;;8.15;5.35;;;;;;;;;;5047672;28;20094;-55
2023/05/30 06:27:56;;;;;;;8.48;6.45;;;;;;;;;;5047833;28;20755;-60
2023/05/30 06:30:21;;;;;;;8.68;6.22;;;;;;;;;;5056490;28;20448;-61
2023/05/30 06:32:47;;;;;;;9.15;5.82;;;;;;;;;;5047048;28;20070;-59
2023/05/30 06:35:12;;;;;;;13.97;6.40;;;;;;;;;;5053565;28;20053;-58
2023/05/30 06:37:37;;;;;;;16.95;6.35;;;;;;;;;;5044984;28;20752;-58
2023/05/30 06:40:03;;;;;;;8.25;6.20;;;;;;;;;;5040744;28;20560;-57
2023/05/30 06:42:28;;;;;;;12.88;6.70;;;;;;;;;;5048661;28;20025;-58
2023/05/30 06:44:53;;;;;;;15.27;6.60;;;;;;;;;;5050124;28;20033;-58
2023/05/30 06:47:18;;;;;;;10.33;6.97;;;;;;;;;;5050871;28;20300;-57
2023/05/30 06:49:44;;;;;;;10.80;7.10;;;;;;;;;;5046836;28;20258;-59
2023/05/30 06:52:09;;;;;;;11.32;6.72;;;;;;;;;;5045531;28;20068;-57
2023/05/30 06:54:34;;;;;;;15.23;6.57;;;;;;;;;;5043505;28;20033;-58
2023/05/30 06:57:02;;;;;;;12.77;5.43;;;;;;;;;;5035847;28;20115;-58
2023/05/30 06:59:28;;;;;;;15.25;6.18;;;;;;;;;;5051422;28;20412;-56
2023/05/30 07:01:53;;;;;;;8.00;5.82;;;;;;;;;;5054482;28;20309;-59
2023/05/30 07:04:19;;;;;;;9.40;5.70;;;;;;;;;;5055861;28;20032;-59
2023/05/30 07:06:45;;;;;;;10.10;6.25;;;;;;;;;;5051986;28;20044;-58
2023/05/30 07:09:10;;;;;;;12.75;5.78;;;;;;;;;;5051967;28;20498;-57
2023/05/30 07:11:35;;;;;;;8.30;5.57;;;;;;;;;;5063153;28;20472;-56
2023/05/30 07:14:01;;;;;;;10.68;5.20;;;;;;;;;;5054685;28;20031;-55
2023/05/30 07:16:26;;;;;;;10.02;6.00;;;;;;;;;;5053363;28;20024;-58
2023/05/30 07:18:51;;;;;;;8.13;5.32;;;;;;;;;;5058353;28;20021;-59
2023/05/30 07:21:17;;;;;;;12.20;6.07;;;;;;;;;;5049639;28;20016;-56
2023/05/30 07:23:42;;;;;;;9.50;6.22;;;;;;;;;;5045719;28;20037;-57
2023/05/30 07:26:07;;;;;;;7.93;5.67;;;;;;;;;;5030428;28;20025;-58
2023/05/30 07:28:32;;;;;;;7.87;5.80;;;;;;;;;;5051233;28;20318;-59
2023/05/30 07:30:58;;;;;;;8.75;4.85;;;;;;;;;;5049503;28;20753;-58
2023/05/30 07:33:23;;;;;;;20.60;12.18;;;;;;;;;;5051504;28;20124;-59
2023/05/30 07:35:48;;;;;;;11.50;6.37;;;;;;;;;;5055072;28;20021;-60
2023/05/30 07:38:13;;;;;;;13.32;5.75;;;;;;;;;;5040181;28;20772;-58
2023/05/30 07:40:39;;;;;;;26.02;12.70;;;;;;;;;;5020647;28;20586;-59
2023/05/30 07:43:04;;;;;;;27.95;15.80;;;;;;;;;;5039460;28;20025;-58
2023/05/30 07:45:30;;;;;;;15.52;8.25;;;;;;;;;;5056787;28;20037;-59
2023/05/30 07:47:55;;;;;;;20.38;10.10;;;;;;;;;;5051724;28;20040;-59
2023/05/30 07:50:20;;;;;;;25.02;8.85;;;;;;;;;;5046455;28;20022;-59
2023/05/30 07:52:46;;;;;;;16.92;9.38;;;;;;;;;;5045018;28;20067;-57
2023/05/30 07:55:11;;;;;;;17.23;8.15;;;;;;;;;;5056516;28;20028;-57
2023/05/30 07:57:36;;;;;;;8.82;5.55;;;;;;;;;;5057802;28;20036;-60
2023/05/30 08:00:07;;;;;;;14.37;8.50;;;;;;;;;;5060731;28;20059;-58
2023/05/30 08:02:33;;;;;;;11.40;6.72;;;;;;;;;;5021469;28;20277;-56
2023/05/30 08:04:58;;;;;;;22.23;9.00;;;;;;;;;;5057400;28;20027;-60
2023/05/30 08:07:23;;;;;;;12.30;6.43;;;;;;;;;;5052174;28;20558;-61
2023/05/30 08:09:49;;;;;;;17.33;7.47;;;;;;;;;;5057201;28;20253;-60
2023/05/30 08:12:19;;;;;;;13.25;7.03;;;;;;;;;;5004839;28;20040;-58
2023/05/30 08:14:45;;;;;;;13.15;7.43;;;;;;;;;;5045296;28;20017;-60
2023/05/30 08:17:13;;;;;;;14.00;6.88;;;;;;;;;;5042778;28;20059;-62
2023/05/30 08:19:39;;;;;;;10.55;6.38;;;;;;;;;;5040356;28;20108;-61
2023/05/30 08:22:05;;;;;;;8.90;6.55;;;;;;;;;;5045450;28;20029;-58
2023/05/30 08:24:31;;;;;;;14.60;7.80;;;;;;;;;;5060089;28;20029;-59
2023/05/30 08:26:56;;;;;;;9.65;6.55;;;;;;;;;;5055077;28;20378;-60
2023/05/30 08:29:21;;;;;;;12.30;7.68;;;;;;;;;;5042810;28;20044;-60
2023/05/30 08:31:46;;;;;;;13.48;6.32;;;;;;;;;;5048730;28;20024;-59
2023/05/30 08:34:12;;;;;;;12.43;6.53;;;;;;;;;;5053352;28;20143;-59
2023/05/30 08:36:37;;;;;;;15.23;6.60;;;;;;;;;;5057877;28;20476;-59
2023/05/30 08:39:03;;;;;;;12.00;6.85;;;;;;;;;;5043962;28;20257;-60
2023/05/30 08:41:29;;;;;;;10.48;6.35;;;;;;;;;;5050379;28;20476;-60
2023/05/30 08:43:55;;;;;;;12.07;6.85;;;;;;;;;;5047176;28;20032;-60
2023/05/30 08:46:20;;;;;;;17.13;7.32;;;;;;;;;;5053075;28;20408;-60
2023/05/30 08:48:47;;;;;;;15.85;6.65;;;;;;;;;;5058018;28;20023;-59
2023/05/30 08:51:13;;;;;;;13.48;6.45;;;;;;;;;;5044250;28;20025;-60
2023/05/30 08:53:42;;;;;;;8.73;6.25;;;;;;;;;;5051236;28;20453;-60
2023/05/30 08:56:10;;;;;;;11.98;6.40;;;;;;;;;;5045215;28;20017;-62
2023/05/30 08:58:40;;;;;;;10.98;5.45;;;;;;;;;;5061478;28;20036;-61
2023/05/30 09:01:06;;;;;;;14.73;7.10;;;;;;;;;;5060512;28;20048;-58
2023/05/30 09:03:34;;;;;;;10.65;6.35;;;;;;;;;;5052363;28;20109;-60
2023/05/30 09:06:00;;;;;;;9.90;6.13;;;;;;;;;;5050186;28;20405;-60
2023/05/30 09:08:26;;;;;;;18.85;6.65;;;;;;;;;;5026497;28;20567;-61
2023/05/30 09:10:55;;;;;;;16.40;6.22;;;;;;;;;;5054905;28;20028;-61
2023/05/30 09:13:20;;;;;;;14.27;6.10;;;;;;;;;;5051302;28;20162;-63
2023/05/30 09:15:46;;;;;;;10.85;6.30;;;;;;;;;;5029342;28;20115;-57
2023/05/30 09:18:12;;;;;;;14.55;7.40;;;;;;;;;;5052975;28;20028;-60
2023/05/30 09:20:38;;;;;;;9.65;6.28;;;;;;;;;;5049785;28;20016;-60
2023/05/30 09:23:03;;;;;;;10.80;6.28;;;;;;;;;;5050091;28;20024;-59
2023/05/30 09:25:59;;;;;;;9.98;5.47;;;;;;;;;;5035195;28;20025;-59
2023/05/30 09:28:26;;;;;;;9.50;5.50;;;;;;;;;;4985827;28;20116;-59
2023/05/30 09:30:53;;;;;;;10.82;5.53;;;;;;;;;;4982690;28;20030;-59
2023/05/30 09:33:18;;;;;;;15.13;5.95;;;;;;;;;;4976045;28;20127;-60
2023/05/30 09:35:44;;;;;;;8.00;5.28;;;;;;;;;;4994060;28;20026;-60
2023/05/30 09:38:14;;;;;;;7.38;4.93;;;;;;;;;;5001084;28;20033;-60
2023/05/30 09:40:39;;;;;;;9.77;5.10;;;;;;;;;;5000939;28;20088;-60
2023/05/30 09:43:05;;;;;;;13.98;5.57;;;;;;;;;;4993760;28;20026;-59
2023/05/30 09:45:30;;;;;;;6.57;5.10;;;;;;;;;;4981140;28;20089;-59
2023/05/30 09:47:55;;;;;;;9.98;4.90;;;;;;;;;;4984938;28;20069;-59
2023/05/30 09:50:21;;;;;;;8.37;4.70;;;;;;;;;;4992303;28;20511;-59
2023/05/30 09:52:55;;;;;;;6.88;4.65;;;;;;;;;;5001412;28;20252;-58
2023/05/30 09:55:20;;;;;;;8.07;5.10;;;;;;;;;;4984566;28;20563;-58
2023/05/30 09:57:49;;;;;;;9.57;4.80;;;;;;;;;;5000949;28;20034;-59
2023/05/30 10:00:18;;;;;;;9.15;5.70;;;;;;;;;;4976349;28;20427;-59
2023/05/30 10:02:50;;;;;;;10.27;5.32;;;;;;;;;;4980801;28;20084;-59
2023/05/30 10:05:19;;;;;;;6.53;4.93;;;;;;;;;;5023126;28;20117;-60
2023/05/30 10:07:46;;;;;;;8.95;5.00;;;;;;;;;;5042340;28;20138;-59
2023/05/30 10:10:12;;;;;;;7.88;5.75;;;;;;;;;;5050923;28;20090;-60
2023/05/30 10:12:38;;;;;;;9.00;4.80;;;;;;;;;;5063274;28;20116;-57
2023/05/30 10:15:03;;;;;;;7.53;5.68;;;;;;;;;;5061202;28;20111;-58
2023/05/30 10:17:32;;;;;;;6.80;5.10;;;;;;;;;;5044927;28;20063;-59
2023/05/30 10:20:00;;;;;;;10.40;5.07;;;;;;;;;;5008357;28;20404;-59
2023/05/30 10:22:26;;;;;;;9.98;5.95;;;;;;;;;;5043052;28;20025;-56
2023/05/30 10:24:53;;;;;;;8.25;5.28;;;;;;;;;;5059049;28;20017;-59
2023/05/30 10:27:21;;;;;;;7.68;5.20;;;;;;;;;;5062899;28;20119;-59
2023/05/30 10:29:47;;;;;;;11.43;5.45;;;;;;;;;;5052265;28;20016;-58
2023/05/30 10:32:19;;;;;;;10.45;5.90;;;;;;;;;;5048161;28;20055;-58
2023/05/30 10:34:53;;;;;;;7.88;5.32;;;;;;;;;;5048435;28;20029;-59
2023/05/30 10:37:19;;;;;;;11.90;4.90;;;;;;;;;;5052384;28;20509;-60
2023/05/30 10:39:48;;;;;;;8.85;4.90;;;;;;;;;;5048067;28;20024;-58
2023/05/30 10:42:39;;;;;;;8.63;4.88;;;;;;;;;;5043052;28;20017;-58
2023/05/30 10:45:18;;;;;;;10.18;5.97;;;;;;;;;;4942458;28;20081;-61
2023/05/30 10:47:51;;;;;;;11.32;6.18;;;;;;;;;;4941458;28;20105;-60
2023/05/30 10:50:26;;;;;;;11.73;5.40;;;;;;;;;;4945644;28;20260;-58
2023/05/30 10:52:52;;;;;;;8.07;5.03;;;;;;;;;;4947134;28;20068;-60
2023/05/30 10:55:18;;;;;;;8.27;4.85;;;;;;;;;;4957295;28;20047;-57
2023/05/30 10:57:43;;;;;;;9.68;4.70;;;;;;;;;;4943421;28;20549;-56
2023/05/30 11:00:18;;;;;;;5.82;4.70;;;;;;;;;;4947407;28;20462;-59
2023/05/30 11:02:48;;;;;;;8.50;4.47;;;;;;;;;;4954353;28;20122;-58
2023/05/30 11:05:18;;;;;;;9.85;4.40;;;;;;;;;;4957494;28;20027;-60
2023/05/30 11:07:43;;;;;;;6.53;4.50;;;;;;;;;;4945722;28;20113;-58
2023/05/30 11:10:11;;;;;;;7.50;4.73;;;;;;;;;;4951910;28;20391;-60
2023/05/30 11:12:43;;;;;;;7.53;4.60;;;;;;;;;;4957899;28;20319;-59
2023/05/30 11:15:09;;;;;;;7.13;4.75;;;;;;;;;;4955809;28;20495;-59
2023/05/30 11:17:37;;;;;;;7.18;4.95;;;;;;;;;;4960267;28;20484;-60
2023/05/30 11:20:07;;;;;;;10.13;5.93;;;;;;;;;;4951045;28;20026;-55
2023/05/30 11:22:32;;;;;;;9.55;4.93;;;;;;;;;;4973858;28;20271;-60
2023/05/30 11:25:36;;;;;;;7.88;5.20;;;;;;;;;;5042307;28;20032;-59
2023/05/30 11:28:04;;;;;;;8.85;5.70;;;;;;;;;;4975936;28;20478;-60
2023/05/30 11:30:37;;;;;;;9.10;5.53;;;;;;;;;;4978760;28;20030;-57
2023/05/30 11:33:03;;;;;;;7.38;5.10;;;;;;;;;;4978100;28;20030;-60
2023/05/30 11:35:30;;;;;;;10.90;4.70;;;;;;;;;;4979029;28;20018;-57
2023/05/30 11:38:00;;;;;;;7.70;4.88;;;;;;;;;;4971925;28;20042;-61
2023/05/30 11:40:25;;;;;;;8.05;4.93;;;;;;;;;;4982148;28;20417;-59
2023/05/30 11:42:53;;;;;;;6.25;4.10;;;;;;;;;;4983726;28;20026;-57
2023/05/30 11:45:22;;;;;;;5.90;3.93;;;;;;;;;;4977568;28;20097;-57
2023/05/30 11:47:48;;;;;;;5.38;4.47;;;;;;;;;;4977812;28;20034;-56
2023/05/30 11:50:13;;;;;;;6.80;4.30;;;;;;;;;;4984462;28;20030;-58
2023/05/30 11:52:39;;;;;;;6.97;4.82;;;;;;;;;;4983825;28;20331;-58
2023/05/30 11:55:04;;;;;;;7.53;4.63;;;;;;;;;;4975517;28;20069;-56
2023/05/30 11:57:30;;;;;;;8.95;4.57;;;;;;;;;;4981697;28;20037;-56
2023/05/30 11:59:56;;;;;;;8.07;4.80;;;;;;;;;;5038972;28;20438;-57
2023/05/30 12:02:25;;;;;;;7.28;4.55;;;;;;;;;;5021230;28;20033;-59
2023/05/30 12:04:57;;;;;;;9.40;4.78;;;;;;;;;;5056627;28;20024;-57
2023/05/30 12:07:23;;;;;;;9.30;5.25;;;;;;;;;;5063097;28;20048;-56
2023/05/30 12:09:49;;;;;;;7.32;4.60;;;;;;;;;;5065947;28;20034;-61
2023/05/30 12:12:14;;;;;;;7.57;4.60;;;;;;;;;;5013603;28;20428;-61
2023/05/30 12:15:02;;;;;;;7.75;5.00;;;;;;;;;;5049553;28;20017;-61
2023/05/30 12:17:28;;;;;;;9.95;5.68;;;;;;;;;;5049659;28;20041;-57
2023/05/30 12:19:56;;;;;;;8.35;5.38;;;;;;;;;;5045282;28;20118;-58
2023/05/30 12:22:22;;;;;;;10.83;4.63;;;;;;;;;;5054803;28;20021;-57
2023/05/30 12:24:49;;;;;;;8.20;5.30;;;;;;;;;;5062403;28;20074;-59
2023/05/30 12:27:21;;;;;;;8.23;5.25;;;;;;;;;;5058910;28;20543;-57
2023/05/30 12:29:46;;;;;;;7.90;5.40;;;;;;;;;;5045793;28;20534;-59
2023/05/30 12:32:12;;;;;;;9.40;5.63;;;;;;;;;;5046725;28;20024;-58
2023/05/30 12:34:46;;;;;;;8.38;5.40;;;;;;;;;;5058217;28;20063;-59
2023/05/30 12:37:16;;;;;;;10.65;6.00;;;;;;;;;;5050258;28;20395;-57
2023/05/30 12:39:49;;;;;;;9.38;5.82;;;;;;;;;;5038895;28;20103;-56
2023/05/30 12:42:19;;;;;;;8.40;6.10;;;;;;;;;;5051365;28;20043;-60
2023/05/30 12:44:47;;;;;;;9.27;6.45;;;;;;;;;;5053645;28;20066;-60
2023/05/30 12:47:12;;;;;;;9.10;5.40;;;;;;;;;;5059616;28;20480;-59
2023/05/30 12:49:38;;;;;;;8.93;5.40;;;;;;;;;;5045549;28;20025;-58
2023/05/30 12:52:03;;;;;;;8.73;5.82;;;;;;;;;;5044410;28;20022;-58
2023/05/30 12:54:29;;;;;;;9.07;5.93;;;;;;;;;;5059530;28;20487;-59
2023/05/30 12:56:54;;;;;;;8.68;5.75;;;;;;;;;;5056766;28;20119;-58
2023/05/30 12:59:19;;;;;;;11.23;5.43;;;;;;;;;;5056801;28;20064;-64
2023/05/30 13:01:44;;;;;;;7.73;5.30;;;;;;;;;;5046609;28;20359;-59
2023/05/30 13:04:10;;;;;;;23.67;11.47;;;;;;;;;;5047468;28;20262;-63
2023/05/30 13:06:35;;;;;;;11.13;6.00;;;;;;;;;;5046644;28;20365;-60
2023/05/30 13:09:00;;;;;;;14.90;6.13;;;;;;;;;;5043636;28;20023;-59
2023/05/30 13:11:26;;;;;;;13.50;6.55;;;;;;;;;;5044466;28;20017;-62
2023/05/30 13:13:51;;;;;;;11.38;6.30;;;;;;;;;;5043803;28;20016;-59
2023/05/30 13:16:16;;;;;;;13.00;6.20;;;;;;;;;;5028793;28;20075;-60
2023/05/30 13:18:42;;;;;;;20.13;7.77;;;;;;;;;;5049825;28;20285;-57
2023/05/30 13:21:07;;;;;;;67.07;62.17;;;;;;;;;;5033076;28;20836;-61
2023/05/30 13:23:32;;;;;;;192.85;180.85;;;;;;;;;;5032908;28;20319;-62
2023/05/30 13:25:57;;;;;;;258.87;243.20;;;;;;;;;;5058358;28;20028;-63
2023/05/30 13:28:23;;;;;;;526.60;486.80;;;;;;;;;;5063949;28;20245;-60
2023/05/30 13:30:48;;;;;;;714.83;656.67;;;;;;;;;;5054421;28;20063;-60
2023/05/30 13:33:13;;;;;;;13.27;6.32;;;;;;;;;;5055375;28;20318;-61
2023/05/30 13:35:39;;;;;;;11.73;6.05;;;;;;;;;;5052193;28;20020;-62
2023/05/30 13:38:05;;;;;;;9.88;6.05;;;;;;;;;;5050474;28;20082;-63
2023/05/30 13:40:30;;;;;;;10.18;5.43;;;;;;;;;;5046243;28;20016;-61
2023/05/30 13:42:56;;;;;;;12.32;5.80;;;;;;;;;;5063101;28;20025;-63
2023/05/30 13:45:21;;;;;;;9.80;5.28;;;;;;;;;;5028604;28;20032;-58
2023/05/30 13:47:47;;;;;;;7.10;5.60;;;;;;;;;;5059891;28;20040;-62
2023/05/30 13:50:13;;;;;;;8.02;5.35;;;;;;;;;;5041768;28;20265;-62
2023/05/30 13:52:38;;;;;;;10.70;5.38;;;;;;;;;;5041933;28;20121;-61
2023/05/30 13:55:05;;;;;;;11.32;5.30;;;;;;;;;;5045869;28;20477;-62
2023/05/30 13:57:30;;;;;;;8.05;5.60;;;;;;;;;;5046875;28;20029;-60
2023/05/30 13:59:56;;;;;;;30.57;11.50;;;;;;;;;;5054803;28;20035;-58
2023/05/30 14:02:21;;;;;;;8.83;5.53;;;;;;;;;;5015179;28;20773;-57
2023/05/30 14:04:46;;;;;;;11.43;5.78;;;;;;;;;;5039949;28;20340;-59
2023/05/30 14:07:13;;;;;;;8.00;5.43;;;;;;;;;;5042763;28;20048;-62
2023/05/30 14:09:38;;;;;;;8.13;5.43;;;;;;;;;;5045761;28;20075;-59
2023/05/30 14:12:06;;;;;;;7.57;5.03;;;;;;;;;;5054715;28;20218;-58
2023/05/30 14:14:32;;;;;;;8.82;4.90;;;;;;;;;;5047001;28;20013;-60
2023/05/30 14:16:57;;;;;;;9.20;5.47;;;;;;;;;;5037306;28;20106;-58
2023/05/30 14:19:28;;;;;;;11.23;5.63;;;;;;;;;;5041285;28;20032;-60
2023/05/30 14:21:53;;;;;;;10.77;5.82;;;;;;;;;;5062298;28;20725;-60
2023/05/30 14:24:19;;;;;;;9.93;5.30;;;;;;;;;;5062070;28;20070;-58
2023/05/30 14:26:44;;;;;;;10.00;6.40;;;;;;;;;;5049981;28;20257;-64
2023/05/30 14:29:10;;;;;;;9.38;5.97;;;;;;;;;;5043221;28;20067;-63
2023/05/30 14:31:36;;;;;;;10.00;5.40;;;;;;;;;;5047825;28;20078;-63